Time;durP1;ratioP1;P1;durP2;ratioP2;P2;SDS_P1;SDS_P2;PMS_P1;PMS_P2;Temp;Humidity;BMP_temperature;BMP_pressure;BME280_temperature;BME280_humidity;BME280_pressure;Samples;Min_cycle;Max_cycle;Signal;HPM_P1;HPM_P2
2021/05/08 00:03:23;;;;;;;4.85;4.45;;;;;;;4.32;78.30;99705.98;232455;1177;115838;-66
2021/05/08 00:08:25;;;;;;;4.60;4.13;;;;;;;4.29;77.99;99713.47;232660;1177;116584;-66
2021/05/08 00:13:29;;;;;;;5.07;4.63;;;;;;;4.32;77.99;99719.17;232739;1177;117370;-68
2021/05/08 00:18:33;;;;;;;5.63;4.23;;;;;;;4.33;78.64;99727.91;232652;1177;117677;-67
2021/05/08 00:23:37;;;;;;;4.20;3.75;;;;;;;4.32;77.77;99731.55;232161;1178;117340;-67
2021/05/08 00:28:41;;;;;;;7.00;5.80;;;;;;;4.32;78.54;99727.09;233060;1177;116237;-68
2021/05/08 00:33:43;;;;;;;6.20;4.30;;;;;;;4.38;77.96;99736.88;232871;1177;116664;-67
2021/05/08 00:38:46;;;;;;;7.25;4.55;;;;;;;4.43;78.66;99738.13;232483;1177;115688;-67
2021/05/08 00:44:08;;;;;;;2.70;2.50;;;;;;;4.40;78.67;99747.24;232791;1180;117281;-67
2021/05/08 00:49:19;;;;;;;4.80;4.40;;;;;;;4.38;78.20;99747.44;233053;1177;116401;-68
2021/05/08 00:54:23;;;;;;;1.73;1.63;;;;;;;4.40;78.72;99755.98;232255;1178;115870;-66
2021/05/08 00:59:28;;;;;;;3.98;3.58;;;;;;;4.33;77.95;99760.39;233094;1177;116472;-67
2021/05/08 01:04:35;;;;;;;5.28;4.88;;;;;;;4.28;77.88;99773.34;233297;1177;117546;-68
2021/05/08 01:09:40;;;;;;;4.73;3.95;;;;;;;4.25;78.43;99775.58;232514;1179;116644;-66
2021/05/08 01:14:44;;;;;;;4.70;4.30;;;;;;;4.17;78.60;99779.17;234136;1179;116615;-67
2021/05/08 01:19:48;;;;;;;5.45;4.83;;;;;;;4.21;78.70;99784.89;234462;1177;116868;-68
2021/05/08 01:24:51;;;;;;;5.90;5.30;;;;;;;4.26;77.90;99783.31;234359;1179;116043;-67
2021/05/08 01:29:54;;;;;;;3.93;2.70;;;;;;;4.21;78.57;99785.70;234387;1177;115721;-69
2021/05/08 01:34:59;;;;;;;8.73;5.07;;;;;;;4.25;78.20;99794.88;234598;1177;118913;-69
2021/05/08 01:40:11;;;;;;;5.15;3.90;;;;;;;4.30;78.26;99794.27;234470;1177;115839;-68
2021/05/08 01:45:17;;;;;;;4.80;4.40;;;;;;;4.32;78.45;99803.63;234369;1177;115738;-68
2021/05/08 01:50:27;;;;;;;5.48;4.95;;;;;;;4.33;78.91;99802.61;233879;1177;115601;-69
2021/05/08 01:55:31;;;;;;;5.75;3.55;;;;;;;4.36;78.49;99806.70;233657;1173;116281;-69
2021/05/08 02:00:44;;;;;;;5.17;4.63;;;;;;;4.32;77.98;99805.45;232375;1178;116704;-68
2021/05/08 02:05:50;;;;;;;7.23;6.73;;;;;;;4.28;78.33;99805.01;232937;1179;115674;-66
2021/05/08 02:10:54;;;;;;;6.27;5.37;;;;;;;4.27;78.12;99811.33;232588;1177;115957;-67
2021/05/08 02:15:57;;;;;;;8.13;5.13;;;;;;;4.12;78.26;99820.32;232082;1177;115985;-67
2021/05/08 02:21:00;;;;;;;3.85;3.40;;;;;;;4.03;78.31;99827.55;233228;1177;115542;-68
2021/05/08 02:26:05;;;;;;;5.93;5.17;;;;;;;3.97;77.74;99830.97;233215;1170;116275;-67
2021/05/08 02:31:09;;;;;;;8.83;6.27;;;;;;;3.95;78.57;99828.52;233914;1177;115449;-69
2021/05/08 02:36:13;;;;;;;5.70;5.10;;;;;;;3.96;78.72;99831.97;233683;1177;114973;-68
2021/05/08 02:41:16;;;;;;;7.33;5.70;;;;;;;3.92;78.30;99835.98;233300;1177;115610;-69
2021/05/08 02:46:19;;;;;;;8.87;6.23;;;;;;;3.91;78.11;99834.36;233059;1177;115343;-68
2021/05/08 02:51:21;;;;;;;4.90;4.40;;;;;;;3.96;78.29;99845.16;232136;1177;115346;-68
2021/05/08 02:56:25;;;;;;;6.40;5.38;;;;;;;3.94;78.56;99849.80;233114;1178;116201;-68
2021/05/08 03:01:29;;;;;;;5.93;4.90;;;;;;;3.92;79.06;99857.91;232191;1177;115489;-69
2021/05/08 03:06:34;;;;;;;5.90;4.33;;;;;;;3.97;78.92;99859.98;232468;1177;114795;-69
2021/05/08 03:11:37;;;;;;;5.35;3.80;;;;;;;3.99;78.46;99865.85;232472;1177;115385;-70
2021/05/08 03:16:43;;;;;;;8.67;5.50;;;;;;;3.95;78.72;99865.44;232817;1177;115598;-69
2021/05/08 03:22:08;;;;;;;7.63;6.30;;;;;;;3.91;78.34;99873.91;233497;1177;115565;-70
2021/05/08 03:27:12;;;;;;;7.95;5.25;;;;;;;3.90;79.05;99874.92;234045;1177;115066;-69
2021/05/08 03:32:16;;;;;;;5.10;4.50;;;;;;;3.87;78.55;99883.20;234584;1177;114825;-69
2021/05/08 03:37:19;;;;;;;5.93;5.30;;;;;;;3.82;78.64;99886.39;234503;1177;114923;-69
2021/05/08 03:42:24;;;;;;;8.75;5.35;;;;;;;3.92;77.62;99883.46;234447;1177;114577;-69
2021/05/08 03:47:28;;;;;;;6.23;5.25;;;;;;;4.17;77.89;99886.53;233918;1177;115968;-67
2021/05/08 03:52:33;;;;;;;2.95;1.73;;;;;;;4.90;77.66;99891.33;233252;1179;115582;-68
2021/05/08 03:57:37;;;;;;;10.10;5.90;;;;;;;5.30;77.00;99897.64;233869;1177;115797;-68
2021/05/08 04:02:42;;;;;;;5.30;4.47;;;;;;;5.08;76.49;99912.79;232527;1177;116023;-67
2021/05/08 04:07:45;;;;;;;2.83;2.63;;;;;;;4.81;77.16;99918.10;233067;1177;115617;-67
2021/05/08 04:12:48;;;;;;;6.15;5.00;;;;;;;4.96;77.47;99919.61;233619;1177;114969;-69
2021/05/08 04:17:51;;;;;;;6.15;5.50;;;;;;;5.23;76.88;99923.22;232852;1177;115182;-69
2021/05/08 04:22:55;;;;;;;5.50;5.00;;;;;;;5.30;76.64;99932.00;232361;1179;116806;-69
2021/05/08 04:27:58;;;;;;;5.97;5.37;;;;;;;5.14;76.83;99940.27;233213;1177;116544;-69
2021/05/08 04:33:00;;;;;;;6.53;3.93;;;;;;;5.12;76.76;99934.36;232434;1177;115604;-68
2021/05/08 04:38:06;;;;;;;4.90;4.50;;;;;;;5.27;76.78;99936.86;232443;1177;115891;-68
2021/05/08 04:43:09;;;;;;;5.05;4.50;;;;;;;6.26;75.95;99938.05;232869;1177;115375;-69
2021/05/08 04:48:22;;;;;;;7.77;6.90;;;;;;;6.86;75.58;99941.52;232209;1177;115040;-70
2021/05/08 04:53:25;;;;;;;5.45;4.13;;;;;;;6.79;75.17;99943.36;232085;1177;115229;-68
2021/05/08 04:58:30;;;;;;;8.40;5.97;;;;;;;6.73;74.86;99944.17;232658;1177;115407;-68
2021/05/08 05:03:33;;;;;;;7.97;6.03;;;;;;;7.04;73.87;99944.34;232384;1177;115275;-69
2021/05/08 05:08:37;;;;;;;7.03;5.20;;;;;;;9.13;71.71;99943.58;232912;1177;116300;-68
2021/05/08 05:13:40;;;;;;;4.70;3.90;;;;;;;13.50;66.66;99952.02;233510;1177;115733;-68
2021/05/08 05:18:44;;;;;;;5.05;4.55;;;;;;;14.53;65.02;99952.08;233051;1177;115603;-68
2021/05/08 05:23:48;;;;;;;2.95;2.65;;;;;;;18.05;59.97;99947.84;232828;1177;116250;-69
2021/05/08 05:28:52;;;;;;;4.50;3.40;;;;;;;19.70;57.43;99945.85;233752;1177;115010;-70
2021/05/08 05:33:55;;;;;;;5.25;4.20;;;;;;;21.24;54.47;99959.48;232847;1178;115661;-71
2021/05/08 05:38:59;;;;;;;4.90;3.35;;;;;;;20.63;53.39;99978.67;233716;1177;115519;-73
2021/05/08 05:44:03;;;;;;;3.40;2.87;;;;;;;20.21;52.42;99984.94;233762;1177;115332;-73
2021/05/08 05:49:07;;;;;;;3.95;3.50;;;;;;;20.49;49.97;99982.11;234575;1177;114612;-71
2021/05/08 05:54:11;;;;;;;4.40;3.57;;;;;;;19.55;50.64;99993.92;234584;1177;115203;-71
2021/05/08 05:59:15;;;;;;;4.30;3.27;;;;;;;19.39;50.12;99998.64;232661;1177;114965;-72
2021/05/08 06:04:18;;;;;;;4.90;2.98;;;;;;;18.59;50.34;99993.66;232139;1177;115775;-71
2021/05/08 06:09:22;;;;;;;4.33;3.63;;;;;;;17.55;50.50;100002.77;232272;1177;115319;-68
2021/05/08 06:14:26;;;;;;;3.50;3.10;;;;;;;16.49;51.05;100005.25;232356;1173;115728;-68
2021/05/08 06:19:29;;;;;;;2.50;2.30;;;;;;;15.87;51.89;100016.09;233114;1177;115532;-69
2021/05/08 06:24:33;;;;;;;5.35;2.75;;;;;;;14.94;52.98;100023.01;232487;1177;115598;-70
2021/05/08 06:29:37;;;;;;;4.23;2.70;;;;;;;14.38;53.50;100031.30;233004;1177;116443;-70
2021/05/08 06:34:43;;;;;;;4.95;2.55;;;;;;;13.76;54.27;100026.28;232023;1177;115675;-69
2021/05/08 06:39:47;;;;;;;6.35;2.70;;;;;;;13.22;54.02;100033.29;232136;1177;115411;-67
2021/05/08 06:44:51;;;;;;;9.03;3.37;;;;;;;12.91;55.29;100025.80;232807;1177;115742;-68
2021/05/08 06:49:56;;;;;;;2.83;2.60;;;;;;;12.93;55.51;100031.72;232341;1170;115286;-68
2021/05/08 06:54:59;;;;;;;3.23;2.73;;;;;;;12.95;56.04;100033.10;232482;1177;116107;-70
2021/05/08 07:00:04;;;;;;;3.75;2.80;;;;;;;12.92;56.14;100038.13;232106;1177;116337;-68
2021/05/08 07:05:08;;;;;;;3.00;2.27;;;;;;;12.56;56.17;100047.39;232620;1177;115731;-71
2021/05/08 07:10:11;;;;;;;1.20;1.20;;;;;;;13.17;57.46;100040.42;232532;1177;115530;-69
2021/05/08 07:15:15;;;;;;;3.57;3.27;;;;;;;14.15;56.22;100044.98;233061;1174;115488;-68
2021/05/08 07:20:18;;;;;;;4.65;2.68;;;;;;;13.87;55.67;100045.17;233242;1177;116396;-67
2021/05/08 07:25:22;;;;;;;3.57;2.80;;;;;;;14.38;56.01;100050.06;232313;1177;115673;-69
2021/05/08 07:30:25;;;;;;;4.38;3.43;;;;;;;13.95;55.20;100045.56;233395;1177;116139;-69
2021/05/08 07:35:28;;;;;;;4.03;3.65;;;;;;;13.65;55.28;100059.37;233716;1177;115810;-67
2021/05/08 07:40:32;;;;;;;6.85;4.60;;;;;;;13.29;55.70;100058.03;233657;1177;115762;-67
2021/05/08 07:45:40;;;;;;;4.93;3.43;;;;;;;13.58;56.57;100050.69;233291;1177;116504;-67
2021/05/08 07:50:44;;;;;;;2.10;1.85;;;;;;;13.95;56.13;100056.28;234408;1177;116496;-70
2021/05/08 07:55:47;;;;;;;3.20;3.00;;;;;;;13.49;54.82;100061.00;233937;1177;115481;-71
2021/05/08 08:00:50;;;;;;;3.43;3.17;;;;;;;13.10;55.29;100075.38;234194;1177;115846;-71
2021/05/08 08:05:53;;;;;;;1.85;1.75;;;;;;;13.10;55.52;100062.80;233331;1177;115666;-67
2021/05/08 08:11:01;;;;;;;3.40;2.00;;;;;;;12.84;55.43;100071.43;233709;1177;115752;-67
2021/05/08 08:16:04;;;;;;;3.63;2.23;;;;;;;12.81;55.53;100072.75;231973;1170;116848;-68
2021/05/08 08:21:08;;;;;;;5.15;2.85;;;;;;;12.46;54.91;100072.91;232861;1177;137335;-66
2021/05/08 08:26:11;;;;;;;5.57;2.67;;;;;;;12.17;55.52;100075.80;232961;1177;116514;-68
2021/05/08 08:31:14;;;;;;;2.17;1.93;;;;;;;11.94;55.53;100074.79;232191;1177;116266;-68
2021/05/08 08:36:16;;;;;;;5.13;1.88;;;;;;;12.01;56.04;100071.99;233623;1177;116046;-68
2021/05/08 08:41:23;;;;;;;5.30;1.90;;;;;;;12.24;55.72;100077.27;232379;1177;116552;-68
2021/05/08 08:46:26;;;;;;;2.53;1.70;;;;;;;12.03;55.08;100080.59;232585;1178;116165;-69
2021/05/08 08:51:29;;;;;;;3.13;1.50;;;;;;;11.66;54.98;100090.70;232448;1177;115954;-71
2021/05/08 08:56:39;;;;;;;6.00;1.73;;;;;;;11.85;55.53;100086.09;233112;1177;116006;-66
2021/05/08 09:01:43;;;;;;;1.27;1.17;;;;;;;12.78;55.60;100091.95;232481;1177;116157;-68
2021/05/08 09:06:50;;;;;;;1.50;1.40;;;;;;;13.09;55.11;100079.91;232637;1177;116370;-69
2021/05/08 09:11:55;;;;;;;1.80;1.70;;;;;;;13.33;53.43;100090.48;232060;1177;116398;-69
2021/05/08 09:17:11;;;;;;;3.00;1.35;;;;;;;13.03;53.27;100101.47;232089;1177;115445;-70
2021/05/08 09:22:31;;;;;;;2.65;1.50;;;;;;;12.79;53.47;100095.45;232367;1177;116165;-68
2021/05/08 09:27:40;;;;;;;4.03;1.17;;;;;;;13.55;54.37;100102.07;233618;1177;116427;-68
2021/05/08 09:33:05;;;;;;;1.50;1.40;;;;;;;13.77;53.02;100105.60;232626;1177;115716;-69
2021/05/08 09:38:13;;;;;;;1.50;1.03;;;;;;;13.27;52.49;100108.33;233049;1177;115493;-71
2021/05/08 09:43:20;;;;;;;1.80;1.70;;;;;;;13.33;52.69;100110.04;232186;1177;116554;-67
2021/05/08 09:48:28;;;;;;;3.03;2.63;;;;;;;13.71;52.03;100097.77;233793;1177;115154;-68
2021/05/08 09:53:37;;;;;;;4.10;1.68;;;;;;;14.39;51.96;100101.83;234339;1177;115829;-68
2021/05/08 09:58:40;;;;;;;1.15;1.10;;;;;;;14.03;50.26;100089.89;234418;1177;115531;-68
2021/05/08 10:03:42;;;;;;;2.60;1.47;;;;;;;14.33;50.92;100092.94;234113;1177;114926;-67
2021/05/08 10:08:52;;;;;;;1.30;1.00;;;;;;;14.67;50.27;100100.86;233573;1177;115216;-67
2021/05/08 10:13:55;;;;;;;2.57;1.50;;;;;;;14.59;49.43;100098.62;232836;1177;116096;-68
2021/05/08 10:18:58;;;;;;;3.77;1.53;;;;;;;14.16;49.45;100098.36;232970;1177;115941;-67
2021/05/08 10:24:01;;;;;;;2.15;1.65;;;;;;;14.39;48.82;100099.16;233623;1177;115591;-69
2021/05/08 10:29:04;;;;;;;2.30;1.37;;;;;;;13.95;49.26;100101.03;233405;1177;116044;-68
2021/05/08 10:34:07;;;;;;;2.30;1.60;;;;;;;14.16;49.14;100100.23;233282;1177;114915;-67
2021/05/08 10:39:15;;;;;;;3.50;1.30;;;;;;;13.72;48.56;100099.39;233429;1177;116075;-68
2021/05/08 10:44:45;;;;;;;2.10;1.43;;;;;;;13.89;48.55;100093.97;233006;1177;115585;-67
2021/05/08 10:50:26;;;;;;;4.05;1.50;;;;;;;14.19;48.30;100094.37;232015;1177;117001;-68
2021/05/08 10:55:31;;;;;;;1.48;1.38;;;;;;;13.88;47.23;100103.07;232499;1177;115784;-69
2021/05/08 11:00:50;;;;;;;2.98;1.38;;;;;;;13.41;47.53;100103.47;232742;1177;115427;-69
2021/05/08 11:06:07;;;;;;;6.70;2.28;;;;;;;13.46;48.31;100106.20;232927;1177;115836;-70
2021/05/08 11:11:15;;;;;;;2.95;1.35;;;;;;;13.81;48.29;100097.88;233104;1177;115603;-68
2021/05/08 11:16:28;;;;;;;2.70;1.40;;;;;;;13.54;47.64;100113.84;233106;1176;115492;-69
2021/05/08 11:21:31;;;;;;;4.78;1.75;;;;;;;13.11;47.67;100111.79;233669;1177;115460;-66
2021/05/08 11:26:38;;;;;;;5.90;1.30;;;;;;;13.30;48.73;100104.36;233465;1177;116223;-68
2021/05/08 11:31:47;;;;;;;0.98;0.98;;;;;;;13.71;47.58;100109.29;232521;1178;118318;-69
2021/05/08 11:36:58;;;;;;;1.20;1.20;;;;;;;13.63;47.92;100116.92;232398;1170;115681;-69
2021/05/08 11:42:14;;;;;;;2.25;1.38;;;;;;;13.90;48.53;100106.31;233001;1177;116172;-71
2021/05/08 11:47:33;;;;;;;1.45;1.40;;;;;;;14.60;47.33;100100.23;233347;1177;115540;-71
2021/05/08 11:52:52;;;;;;;2.75;1.00;;;;;;;14.44;46.58;100102.73;233035;1177;116019;-71
2021/05/08 11:57:59;;;;;;;2.20;1.40;;;;;;;14.63;46.44;100099.73;234308;1177;116055;-70
2021/05/08 12:03:07;;;;;;;3.00;1.30;;;;;;;14.99;46.25;100090.95;234625;1177;115223;-72
2021/05/08 12:08:12;;;;;;;2.40;1.50;;;;;;;15.31;45.40;100098.19;234358;1174;115432;-71
2021/05/08 12:13:15;;;;;;;2.60;1.35;;;;;;;15.08;44.05;100092.11;232962;1177;115890;-70
2021/05/08 12:18:20;;;;;;;1.27;1.07;;;;;;;14.61;43.88;100089.26;232257;1178;115686;-69
2021/05/08 12:23:25;;;;;;;2.77;2.00;;;;;;;14.38;44.04;100087.61;233885;1177;115428;-71
2021/05/08 12:28:28;;;;;;;1.30;1.20;;;;;;;14.10;45.02;100090.49;233020;1177;115164;-67
2021/05/08 12:33:35;;;;;;;2.50;1.90;;;;;;;14.39;44.94;100096.47;232783;1177;115105;-67
2021/05/08 12:38:39;;;;;;;3.48;1.58;;;;;;;14.33;45.42;100106.35;232724;1177;116260;-69
2021/05/08 12:43:49;;;;;;;5.20;1.85;;;;;;;13.93;44.84;100095.11;232355;1177;117372;-67
2021/05/08 12:49:04;;;;;;;0.93;0.93;;;;;;;13.72;44.64;100094.84;232104;1177;115621;-68
2021/05/08 12:54:22;;;;;;;1.38;1.28;;;;;;;13.63;44.93;100088.27;232611;1177;115299;-69
2021/05/08 12:59:28;;;;;;;3.70;1.70;;;;;;;13.50;45.00;100099.31;231922;1177;116004;-67
2021/05/08 13:04:39;;;;;;;1.43;1.30;;;;;;;13.40;44.87;100086.59;232273;1174;115976;-68
2021/05/08 13:09:43;;;;;;;2.10;1.33;;;;;;;13.57;45.31;100081.20;232383;1177;115742;-67
2021/05/08 13:14:46;;;;;;;2.15;1.53;;;;;;;14.01;45.09;100082.09;232551;1177;115402;-69
2021/05/08 13:19:51;;;;;;;1.67;1.47;;;;;;;14.17;45.38;100083.08;231938;1177;116050;-65
2021/05/08 13:24:54;;;;;;;1.33;1.33;;;;;;;14.03;44.44;100088.02;232947;1177;116036;-65
2021/05/08 13:29:57;;;;;;;1.25;1.10;;;;;;;14.04;44.49;100094.19;233519;1177;115286;-67
2021/05/08 13:35:00;;;;;;;1.40;1.00;;;;;;;14.02;44.34;100094.44;233206;1177;116714;-68
2021/05/08 13:40:04;;;;;;;3.50;1.20;;;;;;;13.69;44.23;100089.97;233035;1177;115460;-68
2021/05/08 13:45:09;;;;;;;4.57;2.70;;;;;;;13.30;44.12;100097.14;233876;1174;115640;-68
2021/05/08 13:50:14;;;;;;;2.30;1.95;;;;;;;13.46;44.35;100098.98;234098;1177;114956;-66
2021/05/08 13:55:17;;;;;;;5.80;1.63;;;;;;;13.77;44.31;100086.84;234470;1177;117437;-70
2021/05/08 14:00:23;;;;;;;1.73;1.53;;;;;;;13.97;44.00;100089.01;233383;1177;115974;-65
2021/05/08 14:05:27;;;;;;;1.10;1.10;;;;;;;14.01;43.51;100075.92;234542;1177;115427;-67
2021/05/08 14:10:31;;;;;;;2.45;1.65;;;;;;;13.78;43.28;100075.07;232895;1177;114861;-67
2021/05/08 14:15:34;;;;;;;2.30;1.60;;;;;;;13.63;43.15;100072.20;234129;1177;116207;-65
2021/05/08 14:20:38;;;;;;;2.40;1.87;;;;;;;13.89;43.30;100064.50;233231;1177;116271;-67
2021/05/08 14:25:41;;;;;;;1.90;1.10;;;;;;;14.10;42.94;100071.73;232946;1177;115536;-66
2021/05/08 14:30:45;;;;;;;5.40;2.15;;;;;;;14.18;42.61;100067.80;233429;1178;139658;-67
2021/05/08 14:35:49;;;;;;;3.90;1.73;;;;;;;13.88;42.81;100078.95;232973;1177;115774;-66
2021/05/08 14:40:53;;;;;;;1.50;1.40;;;;;;;13.95;42.60;100068.88;233130;1177;116014;-67
2021/05/08 14:45:57;;;;;;;1.87;1.77;;;;;;;13.74;42.87;100068.61;233462;1177;115688;-65
2021/05/08 14:51:00;;;;;;;1.90;1.80;;;;;;;13.28;42.67;100072.47;232665;1177;115609;-67
2021/05/08 14:56:05;;;;;;;2.00;1.58;;;;;;;12.90;42.93;100075.02;232037;1178;115686;-66
2021/05/08 15:01:08;;;;;;;2.30;1.03;;;;;;;12.81;43.25;100064.73;232784;1177;115802;-66
2021/05/08 15:06:11;;;;;;;1.90;1.80;;;;;;;12.97;43.86;100071.14;232549;1177;116047;-67
2021/05/08 15:11:15;;;;;;;6.77;2.00;;;;;;;13.03;44.07;100074.71;232625;1177;115627;-66
2021/05/08 15:16:21;;;;;;;1.60;1.17;;;;;;;13.02;44.04;100078.44;232761;1177;115905;-65
2021/05/08 15:21:25;;;;;;;2.40;1.67;;;;;;;12.91;43.63;100074.77;232284;1177;116575;-66
2021/05/08 15:26:29;;;;;;;2.80;1.37;;;;;;;12.96;43.45;100082.08;232161;1177;115727;-67
2021/05/08 15:31:32;;;;;;;6.50;1.90;;;;;;;12.97;43.63;100071.14;232659;1177;115663;-67
2021/05/08 15:36:35;;;;;;;2.50;1.35;;;;;;;12.90;43.22;100075.02;232610;1177;115693;-68
2021/05/08 15:41:38;;;;;;;3.00;1.80;;;;;;;12.86;43.10;100072.00;233240;1177;115275;-68
2021/05/08 15:46:41;;;;;;;1.85;1.45;;;;;;;12.86;43.27;100079.22;233701;1177;115258;-67
2021/05/08 15:51:45;;;;;;;5.67;1.87;;;;;;;12.76;43.16;100085.22;233411;1177;114979;-69
2021/05/08 15:56:48;;;;;;;4.30;2.17;;;;;;;12.73;43.83;100083.02;233869;1177;115891;-67
2021/05/08 16:01:50;;;;;;;3.70;1.50;;;;;;;12.69;43.44;100082.69;234522;1177;115910;-66
2021/05/08 16:06:53;;;;;;;1.60;1.50;;;;;;;12.55;43.45;100080.53;234362;1173;116445;-65
2021/05/08 16:11:56;;;;;;;1.80;1.40;;;;;;;12.47;43.32;100087.91;234093;1177;116137;-68
2021/05/08 16:16:59;;;;;;;2.30;1.18;;;;;;;12.36;43.66;100088.75;234410;1177;115448;-67
2021/05/08 16:22:01;;;;;;;2.73;1.63;;;;;;;12.31;44.15;100087.83;233957;1177;116313;-67
2021/05/08 16:27:05;;;;;;;1.63;1.53;;;;;;;12.28;44.26;100083.77;233301;1179;116188;-68
2021/05/08 16:32:08;;;;;;;1.87;1.40;;;;;;;12.24;44.38;100089.82;232913;1179;116905;-68
2021/05/08 16:37:11;;;;;;;1.97;1.87;;;;;;;12.10;44.55;100081.27;233325;1174;116129;-68
2021/05/08 16:42:14;;;;;;;2.10;1.55;;;;;;;11.97;45.05;100089.53;232867;1179;116375;-69
2021/05/08 16:47:33;;;;;;;1.98;1.78;;;;;;;11.79;45.06;100085.97;232266;1177;116397;-67
2021/05/08 16:52:37;;;;;;;1.30;1.20;;;;;;;11.60;45.55;100087.13;233167;1177;116376;-67
2021/05/08 16:57:40;;;;;;;3.93;2.23;;;;;;;11.45;45.38;100084.09;232093;1177;116300;-67
2021/05/08 17:02:46;;;;;;;3.90;2.20;;;;;;;11.31;45.34;100082.71;232702;1177;115628;-66
2021/05/08 17:07:49;;;;;;;3.60;2.05;;;;;;;11.22;45.94;100086.75;232407;1179;116834;-66
2021/05/08 17:12:52;;;;;;;2.70;1.87;;;;;;;11.25;46.80;100088.97;231923;1178;117292;-67
2021/05/08 17:17:55;;;;;;;1.95;1.70;;;;;;;11.16;47.87;100096.48;232931;1177;118545;-67
2021/05/08 17:22:58;;;;;;;2.83;2.50;;;;;;;11.08;48.15;100097.63;232024;1177;116148;-68
2021/05/08 17:28:02;;;;;;;3.40;3.10;;;;;;;10.95;47.79;100105.03;232428;1177;116133;-67
2021/05/08 17:33:05;;;;;;;2.85;2.55;;;;;;;10.84;48.19;100103.95;232063;1177;115955;-67
2021/05/08 17:38:11;;;;;;;5.30;2.90;;;;;;;10.74;48.88;100114.33;233375;1177;115041;-67
2021/05/08 17:43:14;;;;;;;3.55;2.50;;;;;;;10.62;49.14;100119.64;233270;1177;116162;-66
2021/05/08 17:48:18;;;;;;;2.50;2.25;;;;;;;10.48;49.39;100123.50;233876;1177;115793;-67
2021/05/08 17:53:22;;;;;;;2.55;2.35;;;;;;;10.27;49.95;100126.64;234062;1177;115162;-67
2021/05/08 17:58:25;;;;;;;2.33;2.03;;;;;;;10.07;50.49;100129.52;234610;1177;115475;-68
2021/05/08 18:03:29;;;;;;;5.00;3.50;;;;;;;9.89;51.57;100134.80;234647;1177;116437;-67
2021/05/08 18:08:34;;;;;;;2.83;2.30;;;;;;;9.65;52.26;100131.16;234514;1177;118851;-68
2021/05/08 18:13:37;;;;;;;11.30;2.10;;;;;;;9.41;52.70;100146.92;234291;1177;115207;-66
2021/05/08 18:18:41;;;;;;;2.93;2.45;;;;;;;9.17;53.40;100150.38;231966;1177;115345;-64
2021/05/08 18:23:45;;;;;;;3.30;2.63;;;;;;;8.91;53.50;100154.00;233135;1177;115944;-66
2021/05/08 18:28:48;;;;;;;2.65;2.45;;;;;;;8.64;54.67;100165.80;232520;1177;114907;-66
2021/05/08 18:33:51;;;;;;;13.00;8.87;;;;;;;8.31;55.14;100169.36;232490;1177;115604;-67
2021/05/08 18:38:55;;;;;;;4.70;4.13;;;;;;;8.11;55.85;100173.92;233116;1177;115431;-67
2021/05/08 18:43:58;;;;;;;3.90;2.60;;;;;;;7.85;55.55;100177.45;232334;1177;116018;-70
2021/05/08 18:49:02;;;;;;;4.53;2.83;;;;;;;7.52;57.18;100185.42;232186;1177;114969;-67
2021/05/08 18:54:10;;;;;;;6.70;3.63;;;;;;;7.23;57.38;100183.16;233118;1177;115245;-67
2021/05/08 18:59:14;;;;;;;4.18;3.78;;;;;;;7.03;58.24;100194.52;232638;1179;115289;-67
2021/05/08 19:04:18;;;;;;;10.60;5.65;;;;;;;6.88;58.50;100195.72;232812;1177;115274;-68
2021/05/08 19:09:22;;;;;;;18.43;7.93;;;;;;;6.61;58.78;100192.16;232907;1177;116766;-71
2021/05/08 19:14:28;;;;;;;10.30;6.40;;;;;;;6.41;59.66;100200.02;232727;1174;116125;-68
2021/05/08 19:19:32;;;;;;;10.20;5.30;;;;;;;6.22;60.36;100188.30;232204;1179;118593;-67
2021/05/08 19:24:35;;;;;;;8.43;6.60;;;;;;;6.02;60.51;100185.55;233177;1177;116061;-69
2021/05/08 19:29:39;;;;;;;7.00;5.50;;;;;;;5.89;61.49;100192.56;233794;1179;117538;-70
2021/05/08 19:34:49;;;;;;;8.77;7.93;;;;;;;5.77;61.85;100191.45;232273;1177;116105;-69
2021/05/08 19:39:52;;;;;;;8.90;8.00;;;;;;;5.66;62.05;100190.14;232844;1178;117507;-68
2021/05/08 19:44:56;;;;;;;9.35;8.00;;;;;;;5.58;62.16;100188.44;232587;1179;116119;-69
2021/05/08 19:50:01;;;;;;;15.47;10.37;;;;;;;5.44;63.43;100184.06;233073;1180;116916;-70
2021/05/08 19:55:06;;;;;;;40.75;22.60;;;;;;;5.33;63.31;100188.03;233329;1179;117640;-68
2021/05/08 20:00:11;;;;;;;26.80;16.03;;;;;;;5.20;63.27;100189.74;233114;1177;117100;-66
2021/05/08 20:05:15;;;;;;;19.10;14.70;;;;;;;5.05;63.97;100187.96;234426;1177;116933;-66
2021/05/08 20:10:19;;;;;;;17.25;10.85;;;;;;;4.95;64.47;100191.91;234424;1177;116372;-68
2021/05/08 20:15:23;;;;;;;16.80;10.45;;;;;;;4.81;64.40;100185.67;233756;1178;117003;-67
2021/05/08 20:20:26;;;;;;;13.80;11.00;;;;;;;4.82;65.08;100183.86;234133;1177;116393;-66
2021/05/08 20:25:31;;;;;;;21.07;14.73;;;;;;;4.89;65.18;100200.60;233509;1177;115552;-67
2021/05/08 20:30:34;;;;;;;21.93;16.70;;;;;;;4.89;65.70;100193.47;233125;1177;115924;-67
2021/05/08 20:35:38;;;;;;;18.68;12.48;;;;;;;4.72;65.46;100184.14;232662;1178;116274;-66
2021/05/08 20:40:44;;;;;;;22.63;13.73;;;;;;;4.53;66.14;100184.73;232919;1177;117804;-65
2021/05/08 20:45:49;;;;;;;28.87;17.03;;;;;;;4.39;65.59;100192.48;232549;1177;116148;-67
2021/05/08 20:50:53;;;;;;;26.97;18.63;;;;;;;4.22;66.25;100185.77;232810;1173;116294;-66
2021/05/08 20:55:57;;;;;;;33.85;18.75;;;;;;;4.20;66.22;100193.05;232685;1178;116381;-66
2021/05/08 21:01:04;;;;;;;35.73;20.90;;;;;;;4.23;66.70;100190.05;232267;1179;115919;-69
2021/05/08 21:06:08;;;;;;;40.97;22.33;;;;;;;4.27;66.97;100188.68;232517;1177;118011;-66
2021/05/08 21:11:11;;;;;;;46.20;25.65;;;;;;;4.16;67.21;100188.31;232127;1177;117004;-68
2021/05/08 21:16:15;;;;;;;31.55;19.85;;;;;;;3.98;67.48;100183.38;232592;1174;115250;-69
2021/05/08 21:21:19;;;;;;;52.25;32.30;;;;;;;3.82;68.13;100191.46;232321;1177;115637;-67
2021/05/08 21:26:23;;;;;;;54.70;34.13;;;;;;;3.66;68.03;100195.91;232368;1177;114904;-68
2021/05/08 21:31:26;;;;;;;80.48;42.45;;;;;;;3.65;68.08;100196.91;232934;1177;114938;-68
2021/05/08 21:36:30;;;;;;;118.07;62.53;;;;;;;3.70;68.28;100205.07;233105;1177;117395;-69
2021/05/08 21:41:33;;;;;;;64.30;36.55;;;;;;;3.69;68.12;100199.98;232258;1177;116273;-69
2021/05/08 21:46:37;;;;;;;47.63;29.10;;;;;;;3.53;67.85;100206.23;233542;1177;116419;-69
2021/05/08 21:51:41;;;;;;;74.70;41.45;;;;;;;3.40;69.20;100213.89;233925;1177;115552;-69
2021/05/08 21:56:46;;;;;;;35.05;21.03;;;;;;;3.30;68.82;100211.52;233830;1177;115842;-69
2021/05/08 22:01:57;;;;;;;44.55;28.35;;;;;;;3.23;69.09;100210.58;233443;1178;115289;-64
2021/05/08 22:07:06;;;;;;;41.60;22.20;;;;;;;3.22;68.91;100205.48;233824;1177;115692;-69
2021/05/08 22:12:09;;;;;;;;;;;;;;;3.24;69.21;100203.49;234405;1178;115503;-67
2021/05/08 22:17:12;;;;;;;35.53;21.00;;;;;;;3.20;70.04;100204.84;235254;1177;102876;-68
2021/05/08 22:22:17;;;;;;;39.33;24.03;;;;;;;3.25;70.39;100191.95;234047;1177;115711;-66
2021/05/08 22:27:21;;;;;;;41.60;27.35;;;;;;;3.19;70.18;100190.02;232987;1177;115617;-69
2021/05/08 22:32:29;;;;;;;62.25;32.90;;;;;;;3.21;69.71;100185.40;232448;1177;116335;-69
2021/05/08 22:37:33;;;;;;;54.55;30.95;;;;;;;3.22;70.28;100181.77;233272;1177;116345;-69
2021/05/08 22:42:38;;;;;;;42.55;28.60;;;;;;;3.13;69.48;100188.91;233525;1170;115786;-68
2021/05/08 22:47:42;;;;;;;42.03;25.20;;;;;;;2.96;70.55;100182.13;232987;1177;116742;-70
2021/05/08 22:52:48;;;;;;;51.60;26.90;;;;;;;2.87;70.66;100193.69;232176;1177;115766;-67
2021/05/08 22:57:52;;;;;;;49.60;27.00;;;;;;;2.72;70.24;100185.72;233203;1177;116100;-69
2021/05/08 23:02:55;;;;;;;67.30;35.20;;;;;;;2.68;71.14;100185.25;232425;1173;115761;-69
2021/05/08 23:07:59;;;;;;;69.47;35.87;;;;;;;2.73;71.46;100182.10;232381;1177;116552;-69
2021/05/08 23:13:02;;;;;;;68.37;31.07;;;;;;;2.72;71.43;100185.72;232862;1177;116462;-69